Terminal Aerodrome Forecast
Issued by NWS

Home | Current Version | Previous Version | Text Only | Print | Product List | Glossary On
Versions: 1 2 3 4 5 6 7 8 9 10 11 12 13 14 15 16
685
FTUS45 KRIW 221123
TAFLND
TAF
KLND 221123Z 2212/2312 25015KT P6SM SCT070 BKN100
     FM221800 VRB06KT P6SM SCT050 BKN100
     FM230400 36005KT P6SM BKN050
     FM230700 35006KT 2SM -SN OVC014=

USA.gov is the U.S. government's official web portal to all federal, state and local government web resources and services.